CheckWX is a tool to help pilots better visualize weather data.  It is not intended as a substitute for an official pre-flight weather briefing.

01:59:07 UTC

KHKS TAF
Hawkins Field
Jackson, Mississippi, USA
KHKS 110524Z 1106/1206 02004KT P6SM FEW040

Jul-11@
06:00 UTC

Jul-11 @ 06:00 UTC

Jul-12@
06:00 UTC

Jul-12 @ 06:00 UTC

TAF KHKS 110524Z 1106/1206 02004KT P6SM FEW040
Wind
  • 020° at 4 KTS
Cloud Levels
  • Few at 4,000' AGL